Time;durP1;ratioP1;P1;durP2;ratioP2;P2;SDS_P1;SDS_P2;PMS_P1;PMS_P2;Temp;Humidity;BMP_temperature;BMP_pressure;BME280_temperature;BME280_humidity;BME280_pressure;Samples;Min_cycle;Max_cycle;Signal;HPM_P1;HPM_P2
2024/01/24 00:05:39;;;;;;;20.92;15.00;;;9.40;81.00;;;;;;21007393;28;20067;-57
2024/01/24 00:15:40;;;;;;;21.00;16.42;;;9.30;81.00;;;;;;21007968;28;20045;-57
2024/01/24 00:25:41;;;;;;;23.50;17.17;;;9.20;81.00;;;;;;21007742;28;20044;-57
2024/01/24 00:35:44;;;;;;;21.75;15.90;;;9.10;80.90;;;;;;21005507;28;20037;-56
2024/01/24 00:45:45;;;;;;;26.17;17.38;;;8.90;80.50;;;;;;21005382;28;20076;-56
2024/01/24 00:55:47;;;;;;;21.73;16.52;;;8.80;80.40;;;;;;21005092;28;20043;-58
2024/01/24 01:05:48;;;;;;;23.95;17.10;;;8.70;80.50;;;;;;21004346;28;20021;-56
2024/01/24 01:15:49;;;;;;;23.10;16.45;;;8.70;80.80;;;;;;21003322;28;20039;-58
2024/01/24 01:25:50;;;;;;;26.45;16.98;;;8.70;81.10;;;;;;21002557;28;20028;-56
2024/01/24 01:35:53;;;;;;;23.92;16.50;;;8.60;81.20;;;;;;21001933;28;20111;-56
2024/01/24 01:46:00;;;;;;;22.67;15.77;;;8.50;81.20;;;;;;21000381;28;20127;-57
2024/01/24 01:56:00;;;;;;;24.63;16.23;;;8.50;81.30;;;;;;20998867;28;20043;-57
2024/01/24 02:06:02;;;;;;;21.85;16.25;;;8.40;81.30;;;;;;20999489;28;20029;-59
2024/01/24 02:16:06;;;;;;;22.80;15.75;;;8.50;81.10;;;;;;20997385;28;20044;-57
2024/01/24 02:26:07;;;;;;;21.95;15.20;;;8.30;81.00;;;;;;20996785;28;20020;-57
2024/01/24 02:36:15;;;;;;;22.63;15.57;;;8.30;81.00;;;;;;20997113;28;20399;-56
2024/01/24 02:46:15;;;;;;;22.23;15.77;;;8.30;81.10;;;;;;20995896;28;20044;-56
2024/01/24 02:56:16;;;;;;;21.05;15.55;;;8.20;81.00;;;;;;20994188;28;20094;-56
2024/01/24 03:06:17;;;;;;;22.88;15.52;;;8.20;80.90;;;;;;20995858;28;20025;-56
2024/01/24 03:16:19;;;;;;;20.75;14.10;;;8.20;80.90;;;;;;20995461;28;20043;-56
2024/01/24 03:26:20;;;;;;;18.98;14.32;;;8.00;80.90;;;;;;20993854;28;20029;-57
2024/01/24 03:36:21;;;;;;;18.20;13.55;;;8.00;80.90;;;;;;20994799;28;20044;-57
2024/01/24 03:46:22;;;;;;;20.92;13.93;;;8.00;80.80;;;;;;20992984;28;20048;-56
2024/01/24 03:56:23;;;;;;;16.05;12.88;;;7.90;80.90;;;;;;20992929;28;20041;-57
2024/01/24 04:06:24;;;;;;;18.02;13.02;;;7.80;81.00;;;;;;21001145;28;20134;-56
2024/01/24 04:16:25;;;;;;;16.40;12.30;;;7.80;80.80;;;;;;21008828;28;20032;-57
2024/01/24 04:26:27;;;;;;;15.38;11.70;;;7.70;80.40;;;;;;21006295;28;20028;-58
2024/01/24 04:36:30;;;;;;;16.05;12.25;;;7.60;80.00;;;;;;21005907;28;20486;-56
2024/01/24 04:46:31;;;;;;;16.95;13.15;;;7.50;80.30;;;;;;21005574;28;20053;-57
2024/01/24 04:56:33;;;;;;;15.15;11.32;;;7.50;80.50;;;;;;21005409;28;20071;-57
2024/01/24 05:06:35;;;;;;;15.32;11.98;;;7.50;80.60;;;;;;21003589;28;20086;-57
2024/01/24 05:16:41;;;;;;;15.02;12.13;;;7.50;80.60;;;;;;21003118;28;20477;-57
2024/01/24 05:26:43;;;;;;;16.23;11.50;;;7.50;80.60;;;;;;21001508;28;20040;-56
2024/01/24 05:36:44;;;;;;;16.10;11.18;;;7.40;80.40;;;;;;21000806;28;20040;-58
2024/01/24 05:46:45;;;;;;;15.23;11.27;;;7.30;80.30;;;;;;21001073;28;20117;-57
2024/01/24 05:56:46;;;;;;;15.00;11.75;;;7.20;80.30;;;;;;21000242;28;20071;-56
2024/01/24 06:06:47;;;;;;;15.48;11.52;;;7.20;80.20;;;;;;20998446;28;20017;-57
2024/01/24 06:16:48;;;;;;;14.27;11.50;;;7.20;80.10;;;;;;20997158;28;20036;-58
2024/01/24 06:26:50;;;;;;;14.52;10.98;;;7.10;80.00;;;;;;20996985;28;20425;-58
2024/01/24 06:36:51;;;;;;;14.60;10.57;;;7.10;79.80;;;;;;20997265;28;20509;-56
2024/01/24 06:46:53;;;;;;;12.73;10.70;;;7.10;79.80;;;;;;20995347;28;20063;-58
2024/01/24 06:56:54;;;;;;;13.90;9.50;;;7.10;79.70;;;;;;20996370;28;20036;-57
2024/01/24 07:06:55;;;;;;;12.68;10.23;;;7.00;79.70;;;;;;20994701;28;20032;-57
2024/01/24 07:16:56;;;;;;;13.38;9.65;;;6.90;79.60;;;;;;20995513;28;20349;-57
2024/01/24 07:26:58;;;;;;;13.98;10.68;;;6.90;79.60;;;;;;20995041;28;20044;-57
2024/01/24 07:37:00;;;;;;;14.95;9.68;;;6.90;79.50;;;;;;20996033;28;20372;-56
2024/01/24 07:47:03;;;;;;;13.43;9.50;;;6.90;79.50;;;;;;21009771;28;20056;-57
2024/01/24 07:57:04;;;;;;;11.90;9.38;;;7.00;79.60;;;;;;21008182;28;20036;-57
2024/01/24 08:07:07;;;;;;;12.25;9.95;;;7.00;79.70;;;;;;21006982;28;20035;-58
2024/01/24 08:17:10;;;;;;;15.00;11.10;;;7.10;79.80;;;;;;21006475;28;20037;-58
2024/01/24 08:27:11;;;;;;;12.00;9.80;;;7.30;79.60;;;;;;21007432;28;20024;-58
2024/01/24 08:37:14;;;;;;;15.32;10.57;;;7.50;79.30;;;;;;21006619;28;20060;-58
2024/01/24 08:47:16;;;;;;;24.33;16.98;;;7.70;79.20;;;;;;21004256;28;20056;-58
2024/01/24 08:57:17;;;;;;;15.30;10.63;;;7.90;79.00;;;;;;21002781;28;20116;-58
2024/01/24 09:07:19;;;;;;;16.10;11.38;;;8.10;78.70;;;;;;21004373;28;20052;-58
2024/01/24 09:17:21;;;;;;;14.20;9.38;;;8.60;78.00;;;;;;21003761;28;20041;-56
2024/01/24 09:27:22;;;;;;;13.05;9.52;;;8.80;77.40;;;;;;21001739;28;20032;-58
2024/01/24 09:37:27;;;;;;;41.67;28.45;;;9.10;76.50;;;;;;21001867;28;20380;-58
2024/01/24 09:47:28;;;;;;;13.07;10.05;;;9.40;76.00;;;;;;21000344;28;20124;-56
2024/01/24 09:57:30;;;;;;;21.10;9.70;;;9.80;75.10;;;;;;21000220;28;20546;-56
2024/01/24 10:07:31;;;;;;;13.90;10.18;;;10.20;74.60;;;;;;20999257;28;20438;-56
2024/01/24 10:17:33;;;;;;;17.92;10.88;;;10.60;73.80;;;;;;20998582;28;20033;-54
2024/01/24 10:27:38;;;;;;;16.42;10.60;;;11.00;73.10;;;;;;20998165;28;20166;-55
2024/01/24 10:37:41;;;;;;;;;;;11.40;72.30;;;;;;20996283;28;20037;-55
2024/01/24 10:47:46;;;;;;;13.95;9.38;;;11.90;71.10;;;;;;20994969;28;19960;-54
2024/01/24 10:57:48;;;;;;;17.83;9.75;;;12.20;70.50;;;;;;20995732;28;20087;-54
2024/01/24 11:08:04;;;;;;;13.02;8.82;;;12.50;69.80;;;;;;20994528;28;20037;-55
2024/01/24 11:18:24;;;;;;;23.55;8.80;;;12.80;68.70;;;;;;20993542;28;20116;-55
2024/01/24 11:28:25;;;;;;;13.23;9.23;;;13.20;68.60;;;;;;20994533;28;20083;-54
2024/01/24 11:38:31;;;;;;;17.30;10.40;;;13.20;67.60;;;;;;20994051;28;20418;-55
2024/01/24 11:48:36;;;;;;;14.68;9.30;;;13.40;67.80;;;;;;20993720;28;20362;-54
2024/01/24 11:58:37;;;;;;;15.88;9.75;;;13.70;67.80;;;;;;20991782;28;20037;-54
2024/01/24 12:08:38;;;;;;;18.83;10.10;;;13.90;67.80;;;;;;20991215;28;20036;-55
2024/01/24 12:18:39;;;;;;;11.80;9.68;;;14.10;67.50;;;;;;20992255;28;20028;-56
2024/01/24 12:28:40;;;;;;;16.33;10.10;;;14.30;67.30;;;;;;20999640;28;20102;-56
2024/01/24 12:38:41;;;;;;;13.80;9.85;;;14.50;67.10;;;;;;21002293;28;20025;-54
2024/01/24 12:48:43;;;;;;;14.88;10.70;;;14.70;66.80;;;;;;21000292;28;20049;-53
2024/01/24 12:58:45;;;;;;;16.63;11.20;;;14.80;66.60;;;;;;20995783;28;20039;-55
2024/01/24 13:08:46;;;;;;;13.65;11.95;;;15.00;66.30;;;;;;21001783;28;20468;-55
2024/01/24 13:18:46;;;;;;;14.65;12.88;;;15.20;65.90;;;;;;21001869;28;20108;-56
2024/01/24 13:28:47;;;;;;;16.85;12.30;;;15.30;65.10;;;;;;21001403;28;20059;-56
2024/01/24 13:38:48;;;;;;;13.45;9.77;;;15.40;65.70;;;;;;20999702;28;20021;-54
2024/01/24 13:48:49;;;;;;;14.05;9.98;;;15.40;64.30;;;;;;20999996;28;20477;-55
2024/01/24 13:58:51;;;;;;;13.25;8.38;;;15.60;64.50;;;;;;21000519;28;20090;-58
2024/01/24 14:08:52;;;;;;;15.57;8.50;;;15.70;64.00;;;;;;20998478;28;20040;-55
2024/01/24 14:18:55;;;;;;;9.80;8.80;;;15.70;63.80;;;;;;20997230;28;20024;-55
2024/01/24 14:28:58;;;;;;;13.82;6.45;;;16.00;63.40;;;;;;20996464;28;20044;-55
2024/01/24 14:39:03;;;;;;;7.78;5.05;;;15.90;64.10;;;;;;20995758;28;20116;-57
2024/01/24 14:49:08;;;;;;;10.82;5.63;;;16.00;64.90;;;;;;20993866;28;20413;-55
2024/01/24 14:59:11;;;;;;;11.98;6.72;;;16.00;65.20;;;;;;20994871;28;20078;-57
2024/01/24 15:09:12;;;;;;;14.35;6.85;;;16.30;64.70;;;;;;20995068;28;20435;-56
2024/01/24 15:19:15;;;;;;;11.52;5.82;;;16.20;65.20;;;;;;20993862;28;20029;-55
2024/01/24 15:29:19;;;;;;;9.60;6.03;;;16.00;66.40;;;;;;20993530;28;20040;-55
2024/01/24 15:39:20;;;;;;;12.68;6.30;;;15.90;66.70;;;;;;20992386;28;20024;-56
2024/01/24 15:49:21;;;;;;;9.40;5.47;;;15.90;66.40;;;;;;20992522;28;20063;-55
2024/01/24 15:59:22;;;;;;;9.60;5.57;;;15.70;66.40;;;;;;20995566;28;20031;-56
2024/01/24 16:09:24;;;;;;;15.13;7.35;;;15.70;65.90;;;;;;21007171;28;20052;-55
2024/01/24 16:19:25;;;;;;;11.40;7.95;;;15.60;66.60;;;;;;21006441;28;20028;-55
2024/01/24 16:29:28;;;;;;;13.68;8.13;;;15.40;67.10;;;;;;21005981;28;20047;-56
2024/01/24 16:39:30;;;;;;;14.25;9.02;;;15.30;67.50;;;;;;21006575;28;20097;-57
2024/01/24 16:49:31;;;;;;;11.10;6.55;;;15.20;67.20;;;;;;21005345;28;20383;-56
2024/01/24 16:59:32;;;;;;;12.65;6.75;;;15.20;67.60;;;;;;21005255;28;20424;-57
2024/01/24 17:09:33;;;;;;;10.20;6.88;;;15.10;68.00;;;;;;21002155;28;20098;-56
2024/01/24 17:19:36;;;;;;;13.82;8.63;;;14.90;68.40;;;;;;21003322;28;20442;-54
2024/01/24 17:29:39;;;;;;;15.10;10.52;;;14.70;68.90;;;;;;21000193;28;20115;-57
2024/01/24 17:39:40;;;;;;;17.38;9.00;;;14.60;69.70;;;;;;21001202;28;20043;-55
2024/01/24 17:49:41;;;;;;;18.08;10.57;;;14.50;70.40;;;;;;20998556;28;20055;-55
2024/01/24 17:59:42;;;;;;;10.75;6.47;;;14.30;70.70;;;;;;20998520;28;20060;-55
2024/01/24 18:09:43;;;;;;;20.45;12.32;;;14.30;69.80;;;;;;20995125;28;20036;-57
2024/01/24 18:19:44;;;;;;;20.60;12.05;;;14.20;70.50;;;;;;20989771;28;20496;-56
2024/01/24 18:29:50;;;;;;;40.80;22.27;;;14.00;71.60;;;;;;20994558;28;20044;-56
2024/01/24 18:39:51;;;;;;;37.60;20.00;;;13.90;72.30;;;;;;20995665;28;20081;-57
2024/01/24 18:49:52;;;;;;;22.42;13.38;;;13.70;73.40;;;;;;20993949;28;20076;-55
2024/01/24 18:59:53;;;;;;;12.73;7.20;;;13.60;75.00;;;;;;20994302;28;20104;-57
2024/01/24 19:09:56;;;;;;;13.73;6.43;;;13.30;76.20;;;;;;20993306;28;20056;-55
2024/01/24 19:19:58;;;;;;;10.90;5.82;;;13.20;76.80;;;;;;20992853;28;20036;-57
2024/01/24 19:29:59;;;;;;;9.30;6.05;;;13.10;76.90;;;;;;20993149;28;20142;-55
2024/01/24 19:40:00;;;;;;;10.63;4.97;;;13.00;76.90;;;;;;21006298;28;20017;-55
2024/01/24 19:50:05;;;;;;;8.57;4.95;;;12.90;77.00;;;;;;21009054;28;20121;-56
2024/01/24 20:00:09;;;;;;;10.00;4.60;;;12.80;77.10;;;;;;21008168;28;20341;-57
2024/01/24 20:10:10;;;;;;;11.32;5.15;;;13.80;76.50;;;;;;21004864;28;20116;-55
2024/01/24 20:20:14;;;;;;;13.50;6.35;;;13.20;75.60;;;;;;21004824;28;20036;-56
2024/01/24 20:30:15;;;;;;;;;;;12.80;75.60;;;;;;20997750;28;20036;-56
2024/01/24 20:40:17;;;;;;;9.70;5.15;;;12.50;75.70;;;;;;21001528;28;19911;-54
2024/01/24 20:50:18;;;;;;;6.47;4.75;;;12.20;76.70;;;;;;21002353;28;20051;-55
2024/01/24 21:00:19;;;;;;;8.88;5.00;;;12.00;77.00;;;;;;21002675;28;20104;-53
2024/01/24 21:10:20;;;;;;;8.93;4.75;;;11.90;77.10;;;;;;21002999;28;20099;-55
2024/01/24 21:20:22;;;;;;;13.27;8.40;;;11.70;77.40;;;;;;21001007;28;20029;-54
2024/01/24 21:30:25;;;;;;;8.10;4.90;;;11.70;77.50;;;;;;21001108;28;20060;-54
2024/01/24 21:40:26;;;;;;;10.13;5.35;;;11.50;77.70;;;;;;21000870;28;20051;-56
2024/01/24 21:50:28;;;;;;;7.07;4.82;;;11.50;77.80;;;;;;20998856;28;20072;-55
2024/01/24 22:00:30;;;;;;;9.60;5.57;;;11.40;77.90;;;;;;20998967;28;20100;-55
2024/01/24 22:10:31;;;;;;;7.55;4.55;;;11.40;77.80;;;;;;20997562;28;20037;-56
2024/01/24 22:20:32;;;;;;;6.55;4.25;;;11.20;78.10;;;;;;20998114;28;20533;-55
2024/01/24 22:30:35;;;;;;;9.27;4.43;;;11.10;78.10;;;;;;20996877;28;20041;-54
2024/01/24 22:40:36;;;;;;;7.13;4.80;;;10.90;78.10;;;;;;20995778;28;20033;-55
2024/01/24 22:50:37;;;;;;;14.27;10.43;;;10.70;78.30;;;;;;20995478;28;20412;-53
2024/01/24 23:00:38;;;;;;;6.22;4.82;;;10.60;78.30;;;;;;20996231;28;20119;-54
2024/01/24 23:10:39;;;;;;;8.07;4.60;;;10.50;78.50;;;;;;20995556;28;20037;-53
2024/01/24 23:20:40;;;;;;;9.80;5.15;;;10.40;78.50;;;;;;20994039;28;20067;-54
2024/01/24 23:30:42;;;;;;;9.40;6.18;;;10.30;78.60;;;;;;20993880;28;20063;-53
2024/01/24 23:40:43;;;;;;;8.25;5.32;;;10.20;78.80;;;;;;20993114;28;20074;-55
2024/01/24 23:50:44;;;;;;;8.05;4.45;;;10.20;78.90;;;;;;20992559;28;20040;-55
